sensor_id;sensor_type;location;lat;lon;timestamp;pressure;altitude;pressure_sealevel;temperature;humidity
8140;BME280;4111;50.972;7.072;2022-10-31T00:01:00;101577.63;;;14.22;92.20
8140;BME280;4111;50.972;7.072;2022-10-31T00:03:27;101581.19;;;14.05;92.02
8140;BME280;4111;50.972;7.072;2022-10-31T00:05:53;101587.25;;;13.91;92.46
8140;BME280;4111;50.972;7.072;2022-10-31T00:08:20;101584.72;;;13.55;93.89
8140;BME280;4111;50.972;7.072;2022-10-31T00:10:46;101585.06;;;13.59;94.76
8140;BME280;4111;50.972;7.072;2022-10-31T00:13:14;101592.78;;;13.79;94.29
8140;BME280;4111;50.972;7.072;2022-10-31T00:15:41;101583.03;;;13.83;94.39
8140;BME280;4111;50.972;7.072;2022-10-31T00:18:09;101585.81;;;13.88;94.21
8140;BME280;4111;50.972;7.072;2022-10-31T00:20:36;101595.69;;;13.89;94.00
8140;BME280;4111;50.972;7.072;2022-10-31T00:23:04;101596.75;;;13.88;94.22
8140;BME280;4111;50.972;7.072;2022-10-31T00:25:36;101601.13;;;13.89;94.00
8140;BME280;4111;50.972;7.072;2022-10-31T00:28:04;101601.63;;;13.86;93.90
8140;BME280;4111;50.972;7.072;2022-10-31T00:30:31;101595.50;;;13.79;94.08
8140;BME280;4111;50.972;7.072;2022-10-31T00:32:58;101593.13;;;13.82;94.36
8140;BME280;4111;50.972;7.072;2022-10-31T00:35:25;101581.94;;;13.84;94.29
8140;BME280;4111;50.972;7.072;2022-10-31T00:37:52;101596.44;;;13.84;94.08
8140;BME280;4111;50.972;7.072;2022-10-31T00:40:18;101586.81;;;13.82;94.63
8140;BME280;4111;50.972;7.072;2022-10-31T00:42:45;101572.59;;;13.80;94.43
8140;BME280;4111;50.972;7.072;2022-10-31T00:45:11;101587.97;;;13.86;94.68
8140;BME280;4111;50.972;7.072;2022-10-31T00:47:38;101597.41;;;13.95;94.40
8140;BME280;4111;50.972;7.072;2022-10-31T00:50:05;101605.19;;;14.03;93.98
8140;BME280;4111;50.972;7.072;2022-10-31T00:52:32;101616.34;;;14.02;94.04
8140;BME280;4111;50.972;7.072;2022-10-31T00:54:58;101614.19;;;14.04;93.93
8140;BME280;4111;50.972;7.072;2022-10-31T00:57:25;101631.84;;;13.96;93.95
8140;BME280;4111;50.972;7.072;2022-10-31T00:59:51;101629.50;;;13.88;94.46
8140;BME280;4111;50.972;7.072;2022-10-31T01:02:18;101628.34;;;13.84;94.64
8140;BME280;4111;50.972;7.072;2022-10-31T01:04:45;101615.44;;;13.79;95.12
8140;BME280;4111;50.972;7.072;2022-10-31T01:07:11;101616.25;;;13.80;95.76
8140;BME280;4111;50.972;7.072;2022-10-31T01:09:40;101623.22;;;13.87;95.53
8140;BME280;4111;50.972;7.072;2022-10-31T01:12:07;101621.75;;;13.97;95.22
8140;BME280;4111;50.972;7.072;2022-10-31T01:14:33;101612.22;;;13.99;94.89
8140;BME280;4111;50.972;7.072;2022-10-31T01:16:59;101597.56;;;13.72;94.99
8140;BME280;4111;50.972;7.072;2022-10-31T01:19:26;101593.06;;;13.48;95.93
8140;BME280;4111;50.972;7.072;2022-10-31T01:21:54;101594.56;;;13.56;96.64
8140;BME280;4111;50.972;7.072;2022-10-31T01:24:21;101600.22;;;13.66;96.23
8140;BME280;4111;50.972;7.072;2022-10-31T01:26:47;101592.28;;;13.65;96.28
8140;BME280;4111;50.972;7.072;2022-10-31T01:29:14;101586.47;;;13.61;96.29
8140;BME280;4111;50.972;7.072;2022-10-31T01:31:40;101588.25;;;13.39;97.02
8140;BME280;4111;50.972;7.072;2022-10-31T01:34:06;101588.59;;;13.42;97.64
8140;BME280;4111;50.972;7.072;2022-10-31T01:36:36;101581.19;;;13.55;97.08
8140;BME280;4111;50.972;7.072;2022-10-31T01:39:11;101577.72;;;13.59;97.28
8140;BME280;4111;50.972;7.072;2022-10-31T01:41:41;101569.53;;;13.59;97.31
8140;BME280;4111;50.972;7.072;2022-10-31T01:46:42;101574.00;;;13.65;97.70
8140;BME280;4111;50.972;7.072;2022-10-31T01:49:56;101564.34;;;13.75;96.99
8140;BME280;4111;50.972;7.072;2022-10-31T01:52:24;101560.03;;;13.79;96.82
8140;BME280;4111;50.972;7.072;2022-10-31T01:55:00;101555.13;;;13.64;96.38
8140;BME280;4111;50.972;7.072;2022-10-31T01:57:31;101559.88;;;13.68;96.20
8140;BME280;4111;50.972;7.072;2022-10-31T02:00:02;101551.47;;;13.58;96.61
8140;BME280;4111;50.972;7.072;2022-10-31T02:02:30;101548.69;;;13.53;96.79
8140;BME280;4111;50.972;7.072;2022-10-31T02:05:00;101545.53;;;13.61;97.04
8140;BME280;4111;50.972;7.072;2022-10-31T02:07:33;101548.09;;;13.68;97.01
8140;BME280;4111;50.972;7.072;2022-10-31T02:10:03;101551.09;;;13.66;96.74
8140;BME280;4111;50.972;7.072;2022-10-31T02:12:31;101547.03;;;13.69;96.51
8140;BME280;4111;50.972;7.072;2022-10-31T02:14:59;101542.97;;;13.72;96.61
8140;BME280;4111;50.972;7.072;2022-10-31T02:17:26;101546.59;;;13.60;95.93
8140;BME280;4111;50.972;7.072;2022-10-31T02:32:00;101564.78;;;13.38;97.23
8140;BME280;4111;50.972;7.072;2022-10-31T02:34:43;101561.47;;;13.36;97.01
8140;BME280;4111;50.972;7.072;2022-10-31T02:37:24;101564.13;;;13.47;96.72
8140;BME280;4111;50.972;7.072;2022-10-31T02:40:23;101570.41;;;13.48;96.70
8140;BME280;4111;50.972;7.072;2022-10-31T02:45:51;101572.56;;;13.46;96.63
8140;BME280;4111;50.972;7.072;2022-10-31T02:48:26;101571.88;;;13.39;96.87
8140;BME280;4111;50.972;7.072;2022-10-31T02:50:59;101578.31;;;13.33;97.43
8140;BME280;4111;50.972;7.072;2022-10-31T02:53:32;101586.00;;;13.36;97.72
8140;BME280;4111;50.972;7.072;2022-10-31T02:56:12;101583.75;;;13.33;97.69
8140;BME280;4111;50.972;7.072;2022-10-31T03:06:39;101579.41;;;13.48;97.78
8140;BME280;4111;50.972;7.072;2022-10-31T03:11:57;101573.88;;;13.60;97.87
8140;BME280;4111;50.972;7.072;2022-10-31T03:14:29;101585.66;;;13.61;97.60
8140;BME280;4111;50.972;7.072;2022-10-31T03:17:00;101574.88;;;13.54;97.93
8140;BME280;4111;50.972;7.072;2022-10-31T03:19:36;101575.16;;;13.53;98.14
8140;BME280;4111;50.972;7.072;2022-10-31T03:22:15;101580.44;;;13.59;98.69
8140;BME280;4111;50.972;7.072;2022-10-31T03:24:43;101572.09;;;13.66;98.08
8140;BME280;4111;50.972;7.072;2022-10-31T03:27:13;101587.53;;;13.60;98.53
8140;BME280;4111;50.972;7.072;2022-10-31T03:29:42;101571.59;;;13.69;98.37
8140;BME280;4111;50.972;7.072;2022-10-31T03:32:14;101576.06;;;13.75;98.12
8140;BME280;4111;50.972;7.072;2022-10-31T03:34:43;101580.38;;;13.71;97.90
8140;BME280;4111;50.972;7.072;2022-10-31T03:37:14;101577.53;;;13.66;98.05
8140;BME280;4111;50.972;7.072;2022-10-31T03:39:44;101579.94;;;13.62;98.25
8140;BME280;4111;50.972;7.072;2022-10-31T03:42:15;101572.94;;;13.66;98.23
8140;BME280;4111;50.972;7.072;2022-10-31T03:44:49;101569.34;;;13.66;98.32
8140;BME280;4111;50.972;7.072;2022-10-31T03:47:19;101570.28;;;13.72;98.34
8140;BME280;4111;50.972;7.072;2022-10-31T03:49:45;101566.22;;;13.74;97.72
8140;BME280;4111;50.972;7.072;2022-10-31T03:55:12;101564.97;;;13.82;97.66
8140;BME280;4111;50.972;7.072;2022-10-31T03:57:49;101564.97;;;13.82;97.61
8140;BME280;4111;50.972;7.072;2022-10-31T04:00:17;101559.69;;;13.75;97.76
8140;BME280;4111;50.972;7.072;2022-10-31T04:02:59;101570.28;;;13.72;97.72
8140;BME280;4111;50.972;7.072;2022-10-31T04:05:28;101570.28;;;13.72;97.79
8140;BME280;4111;50.972;7.072;2022-10-31T04:07:57;101571.44;;;13.76;97.68
8140;BME280;4111;50.972;7.072;2022-10-31T04:10:25;101574.56;;;13.67;97.57
8140;BME280;4111;50.972;7.072;2022-10-31T04:13:05;101570.78;;;13.68;97.69
8140;BME280;4111;50.972;7.072;2022-10-31T04:15:35;101554.97;;;13.54;98.15
8140;BME280;4111;50.972;7.072;2022-10-31T04:18:04;101564.81;;;13.55;98.27
8140;BME280;4111;50.972;7.072;2022-10-31T04:20:33;101560.34;;;13.65;98.11
8140;BME280;4111;50.972;7.072;2022-10-31T04:23:00;101563.97;;;13.54;97.98
8140;BME280;4111;50.972;7.072;2022-10-31T04:25:27;101567.78;;;13.53;98.03
8140;BME280;4111;50.972;7.072;2022-10-31T04:27:54;101563.97;;;13.54;97.91
8140;BME280;4111;50.972;7.072;2022-10-31T04:30:21;101561.16;;;13.49;98.09
8140;BME280;4111;50.972;7.072;2022-10-31T04:32:47;101562.81;;;13.50;98.04
8140;BME280;4111;50.972;7.072;2022-10-31T04:35:14;101567.09;;;13.46;97.99
8140;BME280;4111;50.972;7.072;2022-10-31T04:37:40;101559.66;;;13.41;98.27
8140;BME280;4111;50.972;7.072;2022-10-31T04:40:07;101565.59;;;13.38;98.23
8140;BME280;4111;50.972;7.072;2022-10-31T04:42:34;101570.03;;;13.27;98.46
8140;BME280;4111;50.972;7.072;2022-10-31T04:45:00;101569.44;;;13.25;98.53
8140;BME280;4111;50.972;7.072;2022-10-31T04:47:26;101554.28;;;13.18;98.61
8140;BME280;4111;50.972;7.072;2022-10-31T04:49:53;101551.81;;;13.16;98.96
8140;BME280;4111;50.972;7.072;2022-10-31T04:52:19;101545.66;;;13.09;98.95
8140;BME280;4111;50.972;7.072;2022-10-31T04:54:45;101549.81;;;13.12;99.21
8140;BME280;4111;50.972;7.072;2022-10-31T04:57:12;101554.41;;;13.11;99.15
8140;BME280;4111;50.972;7.072;2022-10-31T04:59:38;101555.03;;;13.13;99.13
8140;BME280;4111;50.972;7.072;2022-10-31T05:02:05;101555.03;;;13.13;99.36
8140;BME280;4111;50.972;7.072;2022-10-31T05:04:31;101547.66;;;13.14;99.05
8140;BME280;4111;50.972;7.072;2022-10-31T05:06:58;101542.44;;;13.12;99.53
8140;BME280;4111;50.972;7.072;2022-10-31T05:09:24;101548.50;;;13.14;99.45
8140;BME280;4111;50.972;7.072;2022-10-31T05:11:50;101543.63;;;13.16;99.37
8140;BME280;4111;50.972;7.072;2022-10-31T05:14:17;101541.53;;;13.06;99.18
8140;BME280;4111;50.972;7.072;2022-10-31T05:16:43;101533.00;;;13.03;99.48
8140;BME280;4111;50.972;7.072;2022-10-31T05:19:09;101530.78;;;13.00;99.54
8140;BME280;4111;50.972;7.072;2022-10-31T05:21:36;101531.25;;;12.97;99.34
8140;BME280;4111;50.972;7.072;2022-10-31T05:24:02;101525.56;;;12.98;99.67
8140;BME280;4111;50.972;7.072;2022-10-31T05:26:29;101527.66;;;13.08;99.35
8140;BME280;4111;50.972;7.072;2022-10-31T05:28:55;101530.78;;;13.00;99.09
8140;BME280;4111;50.972;7.072;2022-10-31T05:31:22;101525.22;;;12.95;99.10
8140;BME280;4111;50.972;7.072;2022-10-31T05:33:48;101531.16;;;12.92;99.17
8140;BME280;4111;50.972;7.072;2022-10-31T05:36:15;101521.31;;;12.90;99.39
8140;BME280;4111;50.972;7.072;2022-10-31T05:38:41;101526.06;;;12.83;99.59
8140;BME280;4111;50.972;7.072;2022-10-31T05:41:07;101516.50;;;12.81;99.58
8140;BME280;4111;50.972;7.072;2022-10-31T05:43:35;101516.16;;;12.77;99.58
8140;BME280;4111;50.972;7.072;2022-10-31T05:46:01;101514.50;;;12.76;99.71
8140;BME280;4111;50.972;7.072;2022-10-31T05:48:28;101518.88;;;12.77;99.69
8140;BME280;4111;50.972;7.072;2022-10-31T05:50:54;101506.22;;;12.71;99.44
8140;BME280;4111;50.972;7.072;2022-10-31T05:53:21;101511.66;;;12.71;99.75
8140;BME280;4111;50.972;7.072;2022-10-31T05:55:47;101504.59;;;12.70;99.49
8140;BME280;4111;50.972;7.072;2022-10-31T05:58:14;101508.34;;;12.69;99.44
8140;BME280;4111;50.972;7.072;2022-10-31T06:00:40;101507.38;;;12.75;99.18
8140;BME280;4111;50.972;7.072;2022-10-31T06:03:08;101499.91;;;12.82;99.04
8140;BME280;4111;50.972;7.072;2022-10-31T06:05:35;101501.94;;;12.75;99.23
8140;BME280;4111;50.972;7.072;2022-10-31T06:08:01;101500.66;;;12.78;99.27
8140;BME280;4111;50.972;7.072;2022-10-31T06:10:28;101506.53;;;12.86;99.12
8140;BME280;4111;50.972;7.072;2022-10-31T06:12:55;101508.66;;;12.84;98.64
8140;BME280;4111;50.972;7.072;2022-10-31T06:15:22;101513.03;;;12.85;98.56
8140;BME280;4111;50.972;7.072;2022-10-31T06:18:03;101514.13;;;12.84;98.52
8140;BME280;4111;50.972;7.072;2022-10-31T06:20:32;101514.00;;;12.79;98.43
8140;BME280;4111;50.972;7.072;2022-10-31T06:22:59;101524.72;;;12.69;98.71
8140;BME280;4111;50.972;7.072;2022-10-31T06:25:26;101519.75;;;12.66;98.97
8140;BME280;4111;50.972;7.072;2022-10-31T06:27:53;101515.94;;;12.67;99.17
8140;BME280;4111;50.972;7.072;2022-10-31T06:30:20;101520.56;;;12.66;99.22
8140;BME280;4111;50.972;7.072;2022-10-31T06:32:47;101517.63;;;12.68;99.29
8140;BME280;4111;50.972;7.072;2022-10-31T06:35:13;101522.81;;;12.69;99.38
8140;BME280;4111;50.972;7.072;2022-10-31T06:37:39;101526.38;;;12.70;99.83
8140;BME280;4111;50.972;7.072;2022-10-31T06:40:08;101528.97;;;12.77;99.67
8140;BME280;4111;50.972;7.072;2022-10-31T06:42:34;101532.78;;;12.64;99.45
8140;BME280;4111;50.972;7.072;2022-10-31T06:45:01;101528.88;;;12.60;99.62
8140;BME280;4111;50.972;7.072;2022-10-31T06:47:27;101529.13;;;12.58;99.75
8140;BME280;4111;50.972;7.072;2022-10-31T06:49:54;101527.13;;;12.54;99.97
8140;BME280;4111;50.972;7.072;2022-10-31T06:52:20;101518.94;;;12.54;99.96
8140;BME280;4111;50.972;7.072;2022-10-31T06:54:46;101512.63;;;12.65;100.00
8140;BME280;4111;50.972;7.072;2022-10-31T06:57:13;101520.94;;;12.70;99.87
8140;BME280;4111;50.972;7.072;2022-10-31T06:59:39;101513.81;;;12.69;99.63
8140;BME280;4111;50.972;7.072;2022-10-31T07:02:08;101522.00;;;12.57;100.00
8140;BME280;4111;50.972;7.072;2022-10-31T07:04:35;101526.63;;;12.68;100.00
8140;BME280;4111;50.972;7.072;2022-10-31T07:07:02;101530.03;;;12.76;99.98
8140;BME280;4111;50.972;7.072;2022-10-31T07:09:28;101524.44;;;12.82;100.00
8140;BME280;4111;50.972;7.072;2022-10-31T07:11:55;101520.63;;;12.83;100.00
8140;BME280;4111;50.972;7.072;2022-10-31T07:14:21;101513.03;;;12.85;100.00
8140;BME280;4111;50.972;7.072;2022-10-31T07:16:49;101521.81;;;12.87;100.00
8140;BME280;4111;50.972;7.072;2022-10-31T07:19:16;101520.16;;;12.86;100.00
8140;BME280;4111;50.972;7.072;2022-10-31T07:21:43;101511.25;;;12.91;100.00
8140;BME280;4111;50.972;7.072;2022-10-31T07:24:09;101521.44;;;12.96;100.00
8140;BME280;4111;50.972;7.072;2022-10-31T07:26:36;101516.75;;;13.08;100.00
8140;BME280;4111;50.972;7.072;2022-10-31T07:29:02;101522.88;;;13.15;100.00
8140;BME280;4111;50.972;7.072;2022-10-31T07:31:28;101523.19;;;13.19;99.96
8140;BME280;4111;50.972;7.072;2022-10-31T07:33:55;101529.97;;;13.16;99.96
8140;BME280;4111;50.972;7.072;2022-10-31T07:36:21;101530.81;;;13.17;100.00
8140;BME280;4111;50.972;7.072;2022-10-31T07:38:47;101535.84;;;13.25;100.00
8140;BME280;4111;50.972;7.072;2022-10-31T07:41:14;101542.50;;;13.29;99.85
8140;BME280;4111;50.972;7.072;2022-10-31T07:43:40;101549.84;;;13.28;99.72
8140;BME280;4111;50.972;7.072;2022-10-31T07:46:07;101539.97;;;13.39;99.42
8140;BME280;4111;50.972;7.072;2022-10-31T07:48:33;101531.56;;;13.41;99.18
8140;BME280;4111;50.972;7.072;2022-10-31T07:50:59;101532.63;;;13.40;99.26
8140;BME280;4111;50.972;7.072;2022-10-31T07:53:26;101535.13;;;13.41;99.37
8140;BME280;4111;50.972;7.072;2022-10-31T07:55:52;101533.78;;;13.44;99.49
8140;BME280;4111;50.972;7.072;2022-10-31T07:58:19;101537.66;;;13.48;99.57
8140;BME280;4111;50.972;7.072;2022-10-31T08:00:47;101550.31;;;13.54;99.40
8140;BME280;4111;50.972;7.072;2022-10-31T08:03:16;101555.31;;;13.57;99.38
8140;BME280;4111;50.972;7.072;2022-10-31T08:05:42;101557.03;;;13.63;99.02
8140;BME280;4111;50.972;7.072;2022-10-31T08:08:12;101553.22;;;13.64;99.21
8140;BME280;4111;50.972;7.072;2022-10-31T08:10:39;101556.56;;;13.66;98.92
8140;BME280;4111;50.972;7.072;2022-10-31T08:13:09;101554.06;;;13.65;99.67
8140;BME280;4111;50.972;7.072;2022-10-31T08:15:36;101548.44;;;13.72;100.00
8140;BME280;4111;50.972;7.072;2022-10-31T08:18:06;101554.97;;;13.71;99.82
8140;BME280;4111;50.972;7.072;2022-10-31T08:20:32;101547.28;;;13.67;99.74
8140;BME280;4111;50.972;7.072;2022-10-31T08:23:01;101539.84;;;13.63;99.69
8140;BME280;4111;50.972;7.072;2022-10-31T08:25:30;101544.31;;;13.69;99.53
8140;BME280;4111;50.972;7.072;2022-10-31T08:28:04;101543.41;;;13.80;99.59
8140;BME280;4111;50.972;7.072;2022-10-31T08:30:32;101532.72;;;13.79;99.43
8140;BME280;4111;50.972;7.072;2022-10-31T08:33:06;101521.31;;;13.82;99.78
8140;BME280;4111;50.972;7.072;2022-10-31T08:35:34;101527.28;;;13.79;100.00
8140;BME280;4111;50.972;7.072;2022-10-31T08:38:01;101519.81;;;13.91;100.00
8140;BME280;4111;50.972;7.072;2022-10-31T08:40:30;101515.66;;;14.05;100.00
8140;BME280;4111;50.972;7.072;2022-10-31T08:43:21;101509.69;;;14.08;100.00
8140;BME280;4111;50.972;7.072;2022-10-31T08:45:49;101521.25;;;14.16;99.38
8140;BME280;4111;50.972;7.072;2022-10-31T08:48:17;101515.88;;;14.21;98.97
8140;BME280;4111;50.972;7.072;2022-10-31T08:50:44;101509.84;;;14.19;98.74
8140;BME280;4111;50.972;7.072;2022-10-31T08:53:20;101514.28;;;14.25;98.53
8140;BME280;4111;50.972;7.072;2022-10-31T08:55:46;101503.34;;;14.25;98.41
8140;BME280;4111;50.972;7.072;2022-10-31T08:58:18;101511.13;;;14.33;98.45
8140;BME280;4111;50.972;7.072;2022-10-31T09:00:46;101505.03;;;14.26;98.27
8140;BME280;4111;50.972;7.072;2022-10-31T09:03:24;101504.00;;;14.32;97.98
8140;BME280;4111;50.972;7.072;2022-10-31T09:05:55;101503.34;;;14.25;97.76
8140;BME280;4111;50.972;7.072;2022-10-31T09:08:22;101506.09;;;14.25;97.81
8140;BME280;4111;50.972;7.072;2022-10-31T09:10:48;101503.25;;;14.37;97.95
8140;BME280;4111;50.972;7.072;2022-10-31T09:13:17;101503.00;;;14.38;97.68
8140;BME280;4111;50.972;7.072;2022-10-31T09:15:46;101507.94;;;14.41;97.71
8140;BME280;4111;50.972;7.072;2022-10-31T09:18:14;101497.56;;;14.43;97.69
8140;BME280;4111;50.972;7.072;2022-10-31T09:20:42;101503.13;;;14.48;97.63
8140;BME280;4111;50.972;7.072;2022-10-31T09:23:20;101489.53;;;14.54;97.42
8140;BME280;4111;50.972;7.072;2022-10-31T09:25:49;101492.25;;;14.54;97.25
8140;BME280;4111;50.972;7.072;2022-10-31T09:28:19;101488.00;;;14.63;96.85
8140;BME280;4111;50.972;7.072;2022-10-31T09:30:47;101481.03;;;14.72;96.81
8140;BME280;4111;50.972;7.072;2022-10-31T09:33:14;101485.13;;;14.75;96.91
8140;BME280;4111;50.972;7.072;2022-10-31T09:35:40;101482.22;;;14.81;97.33
8140;BME280;4111;50.972;7.072;2022-10-31T09:38:18;101479.03;;;14.90;97.20
8140;BME280;4111;50.972;7.072;2022-10-31T09:43:50;101473.09;;;14.98;97.08
8140;BME280;4111;50.972;7.072;2022-10-31T09:49:33;101461.09;;;15.31;96.67
8140;BME280;4111;50.972;7.072;2022-10-31T09:52:18;101469.13;;;15.43;96.36
8140;BME280;4111;50.972;7.072;2022-10-31T09:54:53;101458.81;;;15.55;96.05
8140;BME280;4111;50.972;7.072;2022-10-31T09:57:28;101457.81;;;15.72;95.53
8140;BME280;4111;50.972;7.072;2022-10-31T09:59:56;101449.22;;;15.90;95.27
8140;BME280;4111;50.972;7.072;2022-10-31T10:05:29;101434.59;;;16.27;93.83
8140;BME280;4111;50.972;7.072;2022-10-31T10:08:12;101429.72;;;16.44;93.21
8140;BME280;4111;50.972;7.072;2022-10-31T10:10:47;101432.81;;;16.63;92.75
8140;BME280;4111;50.972;7.072;2022-10-31T10:13:30;101423.28;;;16.81;92.06
8140;BME280;4111;50.972;7.072;2022-10-31T10:21:19;101413.97;;;17.23;89.37
8140;BME280;4111;50.972;7.072;2022-10-31T10:26:18;101407.91;;;17.57;88.43
8140;BME280;4111;50.972;7.072;2022-10-31T10:28:49;101407.59;;;17.74;87.76
8140;BME280;4111;50.972;7.072;2022-10-31T10:31:24;101401.81;;;17.86;85.91
8140;BME280;4111;50.972;7.072;2022-10-31T10:33:58;101389.16;;;17.95;85.38
8140;BME280;4111;50.972;7.072;2022-10-31T10:36:32;101395.69;;;18.10;84.42
8140;BME280;4111;50.972;7.072;2022-10-31T10:39:41;101390.69;;;18.22;83.07
8140;BME280;4111;50.972;7.072;2022-10-31T10:42:12;101376.88;;;18.37;82.51
8140;BME280;4111;50.972;7.072;2022-10-31T10:44:58;101377.94;;;18.41;81.58
8140;BME280;4111;50.972;7.072;2022-10-31T10:47:47;101380.09;;;18.50;81.30
8140;BME280;4111;50.972;7.072;2022-10-31T10:50:31;101377.81;;;18.62;80.42
8140;BME280;4111;50.972;7.072;2022-10-31T10:53:11;101376.09;;;18.71;80.39
8140;BME280;4111;50.972;7.072;2022-10-31T10:55:56;101372.00;;;18.69;79.29
8140;BME280;4111;50.972;7.072;2022-10-31T10:58:24;101359.59;;;18.71;79.28
8140;BME280;4111;50.972;7.072;2022-10-31T11:00:53;101366.75;;;18.72;78.99
8140;BME280;4111;50.972;7.072;2022-10-31T11:03:21;101349.72;;;18.70;78.62
8140;BME280;4111;50.972;7.072;2022-10-31T11:05:50;101346.97;;;18.70;78.71
8140;BME280;4111;50.972;7.072;2022-10-31T11:08:29;101346.66;;;18.72;78.14
8140;BME280;4111;50.972;7.072;2022-10-31T11:13:52;101344.16;;;18.80;78.08
8140;BME280;4111;50.972;7.072;2022-10-31T11:18:53;101340.25;;;18.87;77.26
8140;BME280;4111;50.972;7.072;2022-10-31T11:21:25;101330.41;;;18.80;77.41
8140;BME280;4111;50.972;7.072;2022-10-31T11:24:25;101328.19;;;18.82;76.83
8140;BME280;4111;50.972;7.072;2022-10-31T11:27:11;101327.59;;;18.86;76.77
8140;BME280;4111;50.972;7.072;2022-10-31T11:29:39;101327.03;;;18.89;76.72
8140;BME280;4111;50.972;7.072;2022-10-31T11:32:05;101320.41;;;18.90;76.50
8140;BME280;4111;50.972;7.072;2022-10-31T11:34:36;101329.25;;;18.87;76.08
8140;BME280;4111;50.972;7.072;2022-10-31T11:37:15;101318.75;;;18.94;76.46
8140;BME280;4111;50.972;7.072;2022-10-31T11:40:02;101318.66;;;19.04;76.46
8140;BME280;4111;50.972;7.072;2022-10-31T11:42:39;101317.50;;;19.10;75.99
8140;BME280;4111;50.972;7.072;2022-10-31T11:45:15;101308.03;;;19.21;75.81
8140;BME280;4111;50.972;7.072;2022-10-31T11:47:47;101303.50;;;19.31;75.80
8140;BME280;4111;50.972;7.072;2022-10-31T11:50:21;101305.63;;;19.39;75.19
8140;BME280;4111;50.972;7.072;2022-10-31T11:52:49;101288.41;;;19.52;75.22
8140;BME280;4111;50.972;7.072;2022-10-31T11:57:55;101285.97;;;19.70;74.31
8140;BME280;4111;50.972;7.072;2022-10-31T12:00:24;101282.03;;;19.81;73.87
8140;BME280;4111;50.972;7.072;2022-10-31T12:03:01;101273.66;;;19.86;73.11
8140;BME280;4111;50.972;7.072;2022-10-31T12:05:30;101276.94;;;19.88;72.33
8140;BME280;4111;50.972;7.072;2022-10-31T12:07:59;101275.31;;;19.87;72.09
8140;BME280;4111;50.972;7.072;2022-10-31T12:10:39;101261.53;;;19.87;71.81
8140;BME280;4111;50.972;7.072;2022-10-31T12:15:53;101256.56;;;19.89;71.48
8140;BME280;4111;50.972;7.072;2022-10-31T12:26:59;101243.59;;;19.90;71.61
8140;BME280;4111;50.972;7.072;2022-10-31T12:35:40;101225.34;;;19.94;71.53
8140;BME280;4111;50.972;7.072;2022-10-31T12:43:47;101213.13;;;20.00;71.87
8140;BME280;4111;50.972;7.072;2022-10-31T12:52:03;101187.31;;;20.10;70.94
8140;BME280;4111;50.972;7.072;2022-10-31T12:54:35;101171.31;;;20.12;70.95
8140;BME280;4111;50.972;7.072;2022-10-31T12:57:23;101167.63;;;20.03;70.81
8140;BME280;4111;50.972;7.072;2022-10-31T12:59:59;101159.03;;;20.04;70.52
8140;BME280;4111;50.972;7.072;2022-10-31T13:02:48;101153.81;;;20.03;70.57
8140;BME280;4111;50.972;7.072;2022-10-31T13:05:33;101151.88;;;20.03;70.59
8140;BME280;4111;50.972;7.072;2022-10-31T13:08:15;101144.06;;;19.91;70.22
8140;BME280;4111;50.972;7.072;2022-10-31T13:10:45;101129.38;;;19.96;70.58
8140;BME280;4111;50.972;7.072;2022-10-31T13:16:31;101118.13;;;19.92;70.73
8140;BME280;4111;50.972;7.072;2022-10-31T13:25:03;101103.19;;;19.98;70.19
8140;BME280;4111;50.972;7.072;2022-10-31T13:27:44;101095.22;;;19.97;69.70
8140;BME280;4111;50.972;7.072;2022-10-31T13:32:58;101095.50;;;19.95;69.67
8140;BME280;4111;50.972;7.072;2022-10-31T13:40:57;101089.91;;;20.00;68.92
8140;BME280;4111;50.972;7.072;2022-10-31T13:43:38;101088.78;;;20.01;69.49
8140;BME280;4111;50.972;7.072;2022-10-31T13:46:23;101096.47;;;20.05;69.45
8140;BME280;4111;50.972;7.072;2022-10-31T13:48:49;101093.78;;;19.99;69.63
8140;BME280;4111;50.972;7.072;2022-10-31T13:51:28;101093.44;;;19.87;69.23
8140;BME280;4111;50.972;7.072;2022-10-31T13:56:24;101090.16;;;19.85;69.79
8140;BME280;4111;50.972;7.072;2022-10-31T13:58:59;101079.94;;;19.86;69.86
8140;BME280;4111;50.972;7.072;2022-10-31T14:01:27;101081.38;;;19.83;70.12
8140;BME280;4111;50.972;7.072;2022-10-31T14:04:07;101079.50;;;19.78;69.99
8140;BME280;4111;50.972;7.072;2022-10-31T14:07:07;101077.50;;;19.84;70.47
8140;BME280;4111;50.972;7.072;2022-10-31T14:09:41;101056.59;;;19.83;70.58
8140;BME280;4111;50.972;7.072;2022-10-31T14:15:13;101041.38;;;19.86;70.33
8140;BME280;4111;50.972;7.072;2022-10-31T14:17:47;101046.66;;;19.82;70.72
8140;BME280;4111;50.972;7.072;2022-10-31T14:22:41;101017.38;;;19.86;70.75
8140;BME280;4111;50.972;7.072;2022-10-31T14:25:31;101007.50;;;19.85;70.77
8140;BME280;4111;50.972;7.072;2022-10-31T14:28:01;101011.97;;;19.81;70.81
8140;BME280;4111;50.972;7.072;2022-10-31T14:30:30;101006.47;;;19.81;70.79
8140;BME280;4111;50.972;7.072;2022-10-31T14:33:18;101007.50;;;19.85;70.49
8140;BME280;4111;50.972;7.072;2022-10-31T14:36:08;101002.69;;;19.77;70.61
8140;BME280;4111;50.972;7.072;2022-10-31T14:42:16;100985.66;;;19.75;70.95
8140;BME280;4111;50.972;7.072;2022-10-31T14:53:08;100995.81;;;19.74;70.99
8140;BME280;4111;50.972;7.072;2022-10-31T14:55:46;100985.03;;;19.78;70.98
8140;BME280;4111;50.972;7.072;2022-10-31T14:58:20;100985.66;;;19.75;70.89
8140;BME280;4111;50.972;7.072;2022-10-31T15:00:51;100975.72;;;19.74;70.67
8140;BME280;4111;50.972;7.072;2022-10-31T15:05:59;100972.47;;;19.72;70.42
8140;BME280;4111;50.972;7.072;2022-10-31T15:08:39;100965.22;;;19.76;70.37
8140;BME280;4111;50.972;7.072;2022-10-31T15:11:21;100960.34;;;19.73;70.03
8140;BME280;4111;50.972;7.072;2022-10-31T15:13:49;100950.69;;;19.70;69.81
8140;BME280;4111;50.972;7.072;2022-10-31T15:16:23;100950.41;;;19.72;69.90
8140;BME280;4111;50.972;7.072;2022-10-31T15:18:56;100950.47;;;19.67;69.56
8140;BME280;4111;50.972;7.072;2022-10-31T15:21:25;100949.88;;;19.70;68.75
8140;BME280;4111;50.972;7.072;2022-10-31T15:23:56;100937.22;;;19.69;68.48
8140;BME280;4111;50.972;7.072;2022-10-31T15:26:31;100934.78;;;19.67;68.24
8140;BME280;4111;50.972;7.072;2022-10-31T15:29:04;100917.22;;;19.63;67.70
8140;BME280;4111;50.972;7.072;2022-10-31T15:31:31;100920.69;;;19.69;67.41
8140;BME280;4111;50.972;7.072;2022-10-31T15:34:05;100914.06;;;19.70;66.51